Time;durP1;ratioP1;P1;durP2;ratioP2;P2;SDS_P1;SDS_P2;PMS_P1;PMS_P2;Temp;Humidity;BMP_temperature;BMP_pressure;BME280_temperature;BME280_humidity;BME280_pressure;Samples;Min_cycle;Max_cycle;Signal;HPM_P1;HPM_P2
2022/08/13 00:00:38;;;;;;;16.52;9.63;;;;;;;21.17;61.91;100160.44;5023499;28;20057;-69
2022/08/13 00:03:14;;;;;;;19.58;9.82;;;;;;;21.14;61.97;100157.50;5031711;28;20119;-68
2022/08/13 00:06:05;;;;;;;23.25;11.02;;;;;;;21.00;62.16;100135.22;5027647;28;20059;-70
2022/08/13 00:08:35;;;;;;;15.82;10.30;;;;;;;21.18;62.42;100164.94;5024498;28;20053;-70
2022/08/13 00:11:05;;;;;;;;;;;;;;;21.05;61.86;100157.66;5019588;28;20095;-70
2022/08/13 00:13:33;;;;;;;;;;;;;;;20.94;61.88;100162.19;5025561;28;19921;-69
2022/08/13 00:16:10;;;;;;;21.75;10.25;;;;;;;20.92;62.18;100148.38;5024789;28;19921;-70
2022/08/13 00:18:38;;;;;;;23.35;10.23;;;;;;;20.99;62.47;100165.63;5028680;28;20470;-70
2022/08/13 00:21:08;;;;;;;23.15;9.77;;;;;;;20.76;62.39;100127.63;5024144;28;20128;-70
2022/08/13 00:23:37;;;;;;;21.73;9.73;;;;;;;21.04;62.54;100162.50;5026131;28;20072;-68
2022/08/13 00:26:26;;;;;;;27.65;11.25;;;;;;;20.90;62.83;100122.34;5022687;28;20059;-71
2022/08/13 00:28:56;;;;;;;19.92;10.38;;;;;;;21.08;62.90;100145.56;5025429;28;20441;-70
2022/08/13 00:31:24;;;;;;;19.42;11.15;;;;;;;21.00;63.16;100115.34;5023587;28;20266;-70
2022/08/13 00:33:51;;;;;;;24.75;9.88;;;;;;;21.12;63.24;100128.63;5030405;28;20115;-70
2022/08/13 00:36:21;;;;;;;23.75;10.88;;;;;;;21.03;63.69;100077.72;5029642;28;20128;-71
2022/08/13 00:39:06;;;;;;;23.58;10.85;;;;;;;21.58;63.82;100129.13;5024476;28;20124;-70
2022/08/13 00:41:38;;;;;;;20.95;10.30;;;;;;;21.51;63.88;100090.81;5019039;28;20050;-69
2022/08/13 00:44:28;;;;;;;16.17;9.23;;;;;;;21.84;63.42;100112.34;5025656;28;20577;-70
2022/08/13 00:48:41;;;;;;;22.75;9.88;;;;;;;22.04;63.37;100140.84;5028880;28;20045;-71
2022/08/13 00:49:47;;;;;;;13.65;7.47;;;;;;;21.97;62.82;100111.03;5028741;28;20128;-70
2022/08/13 00:52:40;;;;;;;17.58;8.18;;;;;;;21.79;62.47;100098.41;5023991;28;20095;-71
2022/08/13 00:55:16;;;;;;;14.35;7.82;;;;;;;21.95;63.11;100116.28;5028303;28;20718;-70
2022/08/13 00:57:50;;;;;;;14.32;7.22;;;;;;;22.20;62.78;100122.63;5026040;28;20046;-70
2022/08/13 01:00:22;;;;;;;13.95;7.03;;;;;;;21.98;62.28;100077.75;5024617;28;20049;-71
2022/08/13 01:02:51;;;;;;;12.63;6.50;;;;;;;22.36;62.41;100119.75;5018097;28;20513;-71
2022/08/13 01:05:26;;;;;;;13.23;7.22;;;;;;;22.24;62.24;100092.22;5025776;28;20095;-71
2022/08/13 01:08:07;;;;;;;14.70;6.28;;;;;;;22.46;61.48;100102.09;5021998;28;20136;-70
2022/08/13 01:10:41;;;;;;;13.23;6.68;;;;;;;22.39;61.50;100084.88;5023743;28;20053;-69
2022/08/13 01:13:26;;;;;;;10.43;5.70;;;;;;;22.42;62.03;100100.34;5027772;28;20050;-70
2022/08/13 01:15:59;;;;;;;11.48;5.63;;;;;;;22.03;61.94;100048.22;5023283;28;20091;-70
2022/08/13 01:18:28;;;;;;;9.45;6.20;;;;;;;22.27;61.39;100073.59;5024966;28;20600;-70
2022/08/13 01:21:09;;;;;;;12.88;6.53;;;;;;;22.17;61.15;100042.91;5024845;28;20128;-70
2022/08/13 01:23:39;;;;;;;16.30;7.47;;;;;;;22.36;61.22;100084.75;5018723;28;20088;-70
2022/08/13 01:26:09;;;;;;;18.45;8.25;;;;;;;22.40;61.21;100083.66;5022110;28;20049;-71
2022/08/13 01:28:38;;;;;;;17.05;7.93;;;;;;;22.39;61.06;100087.72;5025861;28;20163;-72
2022/08/13 01:31:10;;;;;;;10.85;6.82;;;;;;;22.54;60.98;100094.53;5022315;28;20418;-71
2022/08/13 01:33:46;;;;;;;13.20;6.40;;;;;;;22.42;61.38;100061.34;5021400;28;20054;-70
2022/08/13 01:36:20;;;;;;;13.00;6.63;;;;;;;22.53;61.11;100077.81;5024165;28;20130;-72
2022/08/13 01:39:07;;;;;;;13.77;6.70;;;;;;;22.05;61.22;100004.03;5022644;28;20053;-70
2022/08/13 01:41:45;;;;;;;13.25;6.78;;;;;;;22.57;60.99;100070.22;5024085;28;20102;-71
2022/08/13 01:44:21;;;;;;;13.85;7.45;;;;;;;22.52;61.08;100079.03;5026496;28;20680;-70
2022/08/13 01:52:42;;;;;;;17.05;8.07;;;;;;;22.45;60.86;100059.78;5025881;28;20095;-71
2022/08/13 01:55:10;;;;;;;19.08;7.05;;;;;;;22.34;61.10;100048.16;5020112;28;20452;-70
2022/08/13 01:57:44;;;;;;;13.93;8.10;;;;;;;22.17;60.83;100012.44;5024206;28;20053;-70
2022/08/13 02:00:21;;;;;;;13.00;7.32;;;;;;;22.37;60.61;100058.81;5024940;28;20054;-70
2022/08/13 02:02:54;;;;;;;12.75;7.38;;;;;;;22.35;60.84;100060.34;5025334;28;20099;-71
2022/08/13 02:05:23;;;;;;;14.50;7.43;;;;;;;22.03;61.07;100008.44;5027036;28;20049;-70
2022/08/13 02:08:12;;;;;;;16.90;8.00;;;;;;;22.33;61.11;100054.22;5016213;28;20049;-70
2022/08/13 02:10:45;;;;;;;14.15;7.38;;;;;;;22.23;60.97;100041.41;5019168;28;20099;-70
2022/08/13 02:13:15;;;;;;;14.73;7.47;;;;;;;22.12;61.00;100023.25;5029697;28;20050;-70
2022/08/13 02:15:46;;;;;;;14.13;6.82;;;;;;;22.15;61.27;100025.38;5031325;28;20045;-70
2022/08/13 02:18:19;;;;;;;19.02;7.40;;;;;;;21.74;60.98;99953.75;5019312;28;20041;-70
2022/08/13 02:20:52;;;;;;;17.10;7.75;;;;;;;22.30;60.77;100044.41;5040959;28;20053;-69
2022/08/13 02:23:22;;;;;;;15.75;7.68;;;;;;;21.95;60.89;99985.53;5029881;28;20085;-71
2022/08/13 02:26:10;;;;;;;19.83;8.25;;;;;;;22.30;60.77;100033.03;5026171;28;20056;-70
2022/08/13 02:28:39;;;;;;;23.15;8.32;;;;;;;22.29;60.82;100031.41;5027609;28;20577;-69
2022/08/13 02:31:09;;;;;;;15.75;8.80;;;;;;;21.75;60.93;99967.59;5030328;28;20084;-69
2022/08/13 02:33:56;;;;;;;16.20;9.35;;;;;;;21.94;61.17;100029.34;5031833;28;20455;-71
2022/08/13 02:36:25;;;;;;;17.25;8.30;;;;;;;21.79;61.14;100004.63;5029624;28;20134;-71
2022/08/13 02:38:55;;;;;;;15.55;7.78;;;;;;;22.17;61.07;100042.91;5022182;28;20099;-70
2022/08/13 02:41:43;;;;;;;16.10;7.95;;;;;;;22.21;61.04;100044.63;5028759;28;20053;-70
2022/08/13 02:44:20;;;;;;;16.65;8.50;;;;;;;22.04;60.80;100021.44;5030476;28;20049;-70
2022/08/13 02:47:01;;;;;;;17.65;8.05;;;;;;;22.14;60.93;100046.44;5029212;28;20131;-70
2022/08/13 02:49:28;;;;;;;17.98;9.10;;;;;;;21.81;61.14;100013.59;5028818;28;20522;-70
2022/08/13 02:52:11;;;;;;;18.35;8.50;;;;;;;22.09;61.23;100043.91;5024534;28;20057;-70
2022/08/13 02:54:44;;;;;;;18.67;9.82;;;;;;;22.07;60.97;100055.63;5032848;28;20045;-70
2022/08/13 02:57:24;;;;;;;19.05;9.52;;;;;;;22.04;60.88;100045.00;5022222;28;20050;-70
2022/08/13 02:59:53;;;;;;;18.90;10.07;;;;;;;21.91;60.46;100035.75;5029398;28;20139;-70
2022/08/13 03:02:36;;;;;;;16.60;9.65;;;;;;;22.08;60.73;100074.34;5020781;28;20132;-70
2022/08/13 03:05:10;;;;;;;26.90;9.65;;;;;;;22.00;61.15;100072.53;5025432;28;20087;-70
2022/08/13 03:07:41;;;;;;;24.42;10.50;;;;;;;21.93;61.30;100056.13;5028582;28;20087;-70
2022/08/13 03:10:21;;;;;;;16.58;9.38;;;;;;;21.73;60.94;100020.31;5023542;28;20063;-70
2022/08/13 03:13:21;;;;;;;18.52;9.13;;;;;;;21.88;60.78;100052.72;5027100;28;20049;-69
2022/08/13 03:15:53;;;;;;;20.85;9.70;;;;;;;21.84;61.23;100061.19;5023222;28;20085;-69
2022/08/13 03:18:29;;;;;;;19.83;9.55;;;;;;;21.38;61.29;99992.66;5030829;28;20390;-70
2022/08/13 03:21:18;;;;;;;20.25;9.30;;;;;;;21.91;61.31;100075.56;5028615;28;20053;-69
2022/08/13 03:24:12;;;;;;;17.35;8.40;;;;;;;21.86;61.05;100070.16;5029839;28;20067;-70
2022/08/13 03:26:57;;;;;;;24.73;10.00;;;;;;;21.75;60.89;100066.25;5026741;28;20407;-69
2022/08/13 03:29:24;;;;;;;16.15;8.93;;;;;;;21.79;61.19;100081.38;5023863;28;20049;-69
2022/08/13 03:32:17;;;;;;;13.73;6.82;;;;;;;21.79;61.43;100083.38;5020250;28;20049;-69
2022/08/13 03:34:58;;;;;;;17.08;6.57;;;;;;;21.61;61.23;100061.03;5027629;28;20391;-69
2022/08/13 03:37:40;;;;;;;16.35;6.40;;;;;;;21.39;61.55;100036.91;5029155;28;20052;-69
2022/08/13 03:40:08;;;;;;;;;;;;;;;21.70;61.46;100084.38;5028508;28;20054;-69
2022/08/13 03:42:40;;;;;;;12.88;6.95;;;;;;;21.79;61.12;100084.22;5026248;28;19924;-70
2022/08/13 03:45:21;;;;;;;14.82;6.88;;;;;;;21.46;60.98;100022.88;5031230;28;20215;-69
2022/08/13 03:47:49;;;;;;;11.13;6.57;;;;;;;21.75;60.95;100074.78;5030656;28;20494;-69
2022/08/13 03:50:17;;;;;;;15.82;7.38;;;;;;;21.67;61.33;100056.69;5030632;28;20057;-70
2022/08/13 03:52:45;;;;;;;12.75;6.63;;;;;;;21.49;61.41;100050.56;5032753;28;20049;-69
2022/08/13 03:55:14;;;;;;;11.32;6.53;;;;;;;21.41;61.66;100031.72;5026312;28;20537;-69
2022/08/13 03:57:44;;;;;;;12.60;5.55;;;;;;;21.27;61.80;100011.44;5025812;28;20073;-70
2022/08/13 04:00:40;;;;;;;9.15;5.50;;;;;;;21.25;61.70;100016.63;5027455;28;20532;-70
2022/08/13 04:03:32;;;;;;;12.88;6.22;;;;;;;21.53;60.96;100048.63;5028586;28;20073;-69
2022/08/13 04:06:06;;;;;;;13.82;6.93;;;;;;;21.00;61.08;99959.22;5019276;28;20152;-70
2022/08/13 04:08:35;;;;;;;11.55;7.30;;;;;;;21.51;61.12;100050.22;5022627;28;20073;-71
2022/08/13 04:11:05;;;;;;;13.48;6.35;;;;;;;21.57;61.73;100054.41;5025419;28;20049;-71
2022/08/13 04:13:36;;;;;;;14.32;6.90;;;;;;;21.53;61.87;100047.81;5025053;28;20136;-70
2022/08/13 04:16:25;;;;;;;12.35;7.00;;;;;;;21.52;61.78;100047.00;5026608;28;20121;-70
2022/08/13 04:18:58;;;;;;;15.95;7.25;;;;;;;21.50;61.95;100051.38;5027468;28;20471;-70
2022/08/13 04:21:31;;;;;;;14.88;7.63;;;;;;;21.23;61.83;100004.81;5019943;28;20138;-69
2022/08/13 04:24:04;;;;;;;13.93;7.40;;;;;;;21.57;61.75;100036.53;5023371;28;20056;-70
2022/08/13 04:26:37;;;;;;;17.23;7.53;;;;;;;21.60;61.92;100032.97;5020049;28;20429;-70
2022/08/13 04:29:08;;;;;;;;;;;;;;;21.56;61.80;100032.06;5027371;28;20054;-70
2022/08/13 04:31:35;;;;;;;14.60;7.68;;;;;;;21.45;61.75;99995.69;5024345;28;20020;-70
2022/08/13 04:34:16;;;;;;;21.35;9.40;;;;;;;21.69;61.88;100033.63;5020956;28;20111;-69
2022/08/13 04:37:04;;;;;;;12.82;7.18;;;;;;;21.58;61.85;100029.69;5025275;28;20162;-70
2022/08/13 04:39:32;;;;;;;14.25;8.13;;;;;;;21.53;61.95;100034.44;5024013;28;20136;-70
2022/08/13 04:42:19;;;;;;;18.98;8.95;;;;;;;21.22;62.06;99988.97;5019654;28;20387;-70
2022/08/13 04:45:38;;;;;;;19.02;8.55;;;;;;;21.42;62.63;100007.78;5029317;28;20165;-70
2022/08/13 04:48:09;;;;;;;19.20;10.18;;;;;;;21.34;61.83;99983.25;5026974;28;20486;-71
2022/08/13 04:50:37;;;;;;;21.75;11.88;;;;;;;21.15;62.10;99957.56;5027494;28;20048;-71
2022/08/13 04:53:19;;;;;;;22.92;11.60;;;;;;;21.46;62.41;100008.69;5024270;28;20124;-67
2022/08/13 04:55:49;;;;;;;20.00;9.68;;;;;;;21.45;62.49;100015.56;5019405;28;22395;-69
2022/08/13 04:58:36;;;;;;;19.00;10.57;;;;;;;21.65;61.87;100041.22;5025470;28;20071;-71
2022/08/13 05:01:11;;;;;;;18.75;9.73;;;;;;;21.60;62.40;100038.66;5021612;28;20681;-71
2022/08/13 05:03:58;;;;;;;24.20;10.25;;;;;;;21.66;62.24;100042.88;5021446;28;20142;-70
2022/08/13 05:06:45;;;;;;;26.83;13.02;;;;;;;21.73;62.00;100045.88;5023504;28;20091;-70
2022/08/13 05:09:19;;;;;;;18.58;10.10;;;;;;;21.41;62.05;100008.16;5020337;28;20048;-71
2022/08/13 05:11:56;;;;;;;19.17;10.20;;;;;;;21.48;62.42;100039.59;5021279;28;20057;-72
2022/08/13 05:14:30;;;;;;;19.48;8.93;;;;;;;21.23;62.28;99984.94;5024353;28;20186;-71
2022/08/13 05:16:59;;;;;;;19.65;8.68;;;;;;;21.57;62.17;100034.53;5027421;28;20045;-71
2022/08/13 05:19:27;;;;;;;20.67;9.65;;;;;;;21.47;62.08;100013.19;5025767;28;20046;-71
2022/08/13 05:22:04;;;;;;;21.83;8.27;;;;;;;20.96;62.29;99944.94;5025479;28;20149;-71
2022/08/13 05:24:51;;;;;;;15.38;8.65;;;;;;;21.49;62.10;100035.53;5022463;28;20061;-70
2022/08/13 05:27:39;;;;;;;16.98;9.05;;;;;;;21.18;62.14;99994.56;5018904;28;20057;-71
2022/08/13 05:30:12;;;;;;;18.05;8.65;;;;;;;21.43;62.25;100037.81;5025154;28;20152;-71
2022/08/13 05:32:57;;;;;;;14.80;8.05;;;;;;;20.85;62.21;99955.16;5025230;28;20099;-70
2022/08/13 05:35:27;;;;;;;17.95;9.75;;;;;;;21.18;62.69;100024.97;5022571;28;20053;-70
2022/08/13 05:38:15;;;;;;;16.63;10.32;;;;;;;20.98;62.68;100002.13;5019617;28;20050;-71
2022/08/13 05:40:52;;;;;;;19.30;10.20;;;;;;;21.18;62.74;100031.47;5022146;28;20076;-71
2022/08/13 05:43:23;;;;;;;21.08;9.85;;;;;;;21.12;62.72;100038.59;5020537;28;20640;-71
2022/08/13 05:46:00;;;;;;;17.80;8.95;;;;;;;21.21;62.78;100061.16;5019879;28;20041;-72
2022/08/13 05:48:40;;;;;;;19.55;9.07;;;;;;;20.68;62.94;99961.16;5018647;28;20048;-70
2022/08/13 05:51:10;;;;;;;24.27;10.15;;;;;;;21.22;63.17;100034.41;5022438;28;20087;-73
2022/08/13 05:53:37;;;;;;;;;;;;;;;21.13;63.15;100033.75;5029265;28;20152;-68
2022/08/13 05:56:28;;;;;;;18.20;8.25;;;;;;;21.21;63.23;100044.13;5034888;28;19929;-74
2022/08/13 05:58:55;;;;;;;19.67;9.80;;;;;;;21.23;62.99;100024.69;5029444;28;20103;-68
2022/08/13 06:04:20;;;;;;;20.70;9.60;;;;;;;21.42;62.70;100004.94;5028936;28;20136;-68
2022/08/13 06:07:04;;;;;;;20.67;10.88;;;;;;;21.46;62.50;100011.53;5028924;28;20067;-72
2022/08/13 06:09:32;;;;;;;16.40;9.38;;;;;;;21.26;62.84;99982.22;5025064;28;20055;-71
2022/08/13 06:12:03;;;;;;;18.60;9.55;;;;;;;21.53;62.60;100016.56;5026499;28;20488;-70
2022/08/13 06:14:35;;;;;;;20.08;9.93;;;;;;;21.40;62.34;100010.19;5025265;28;20173;-71
2022/08/13 06:17:05;;;;;;;18.48;10.25;;;;;;;20.85;62.85;99938.13;5031376;28;20148;-72
2022/08/13 06:19:43;;;;;;;18.58;10.20;;;;;;;21.43;63.11;100023.63;5031730;28;20049;-74
2022/08/13 06:22:19;;;;;;;17.15;9.55;;;;;;;21.28;62.63;100002.53;5028107;28;20045;-73
2022/08/13 06:24:47;;;;;;;;;;;;;;;21.21;62.85;100025.06;5027154;28;20168;-73
2022/08/13 06:27:25;;;;;;;19.25;9.82;;;;;;;21.32;62.78;100024.53;5023982;28;19983;-73
2022/08/13 06:30:18;;;;;;;20.98;10.23;;;;;;;21.02;62.80;100002.22;5018905;28;20502;-74
2022/08/13 06:33:01;;;;;;;21.67;10.50;;;;;;;21.01;62.91;100014.78;5027503;28;20461;-75
2022/08/13 06:36:00;;;;;;;22.33;10.60;;;;;;;20.91;63.28;99998.28;5036104;28;20053;-75
2022/08/13 06:38:35;;;;;;;19.27;8.93;;;;;;;20.91;63.70;100003.97;5035746;28;20120;-75
2022/08/13 06:41:05;;;;;;;19.88;9.45;;;;;;;21.08;63.51;100039.72;5035543;28;20094;-75
2022/08/13 06:43:49;;;;;;;15.95;9.40;;;;;;;21.05;63.34;100050.59;5035479;28;20115;-74
2022/08/13 06:46:30;;;;;;;21.67;9.52;;;;;;;21.09;63.40;100055.53;5035327;28;20053;-75
2022/08/13 06:48:59;;;;;;;19.88;9.25;;;;;;;21.26;63.29;100077.91;5035293;28;20053;-75
2022/08/13 06:51:29;;;;;;;15.65;8.30;;;;;;;20.86;63.34;100036.28;5035734;28;20517;-75
2022/08/13 06:54:08;;;;;;;16.23;8.07;;;;;;;20.84;63.02;100041.50;5035168;28;20081;-76
2022/08/13 06:56:55;;;;;;;17.17;9.00;;;;;;;20.89;63.32;100068.78;5035161;28;20541;-75
2022/08/13 06:59:39;;;;;;;17.75;9.10;;;;;;;20.86;63.34;100059.00;5034287;28;20041;-74
2022/08/13 07:02:28;;;;;;;20.05;9.20;;;;;;;20.90;63.11;100081.78;5035176;28;20498;-74
2022/08/13 07:04:57;;;;;;;19.23;9.52;;;;;;;20.83;63.60;100088.09;5035295;28;20137;-74
2022/08/13 07:07:26;;;;;;;16.63;8.77;;;;;;;20.96;63.58;100086.03;5035025;28;20068;-73
2022/08/13 07:09:54;;;;;;;17.35;9.40;;;;;;;20.78;63.47;100060.78;5035568;28;20045;-74
2022/08/13 07:12:24;;;;;;;21.83;10.55;;;;;;;20.92;63.27;100099.28;5035058;28;20050;-74
2022/08/13 07:14:51;;;;;;;28.05;10.27;;;;;;;20.88;63.29;100092.66;5035473;28;20054;-73
2022/08/13 07:17:28;;;;;;;32.05;14.27;;;;;;;20.88;63.53;100096.31;5034930;28;20453;-74
2022/08/13 07:19:59;;;;;;;33.45;16.65;;;;;;;20.95;63.72;100110.72;5034997;28;20096;-74
2022/08/13 07:22:34;;;;;;;32.20;15.15;;;;;;;21.00;63.79;100116.16;5035284;28;20123;-74
2022/08/13 07:25:29;;;;;;;22.35;10.52;;;;;;;20.96;63.65;100118.06;5035348;28;20049;-74
2022/08/13 07:28:19;;;;;;;24.80;11.25;;;;;;;20.89;63.82;100097.16;5034643;28;20479;-74
2022/08/13 07:31:07;;;;;;;19.70;10.40;;;;;;;21.00;64.04;100116.16;5034921;28;20085;-75
2022/08/13 07:33:42;;;;;;;22.30;10.48;;;;;;;20.95;64.00;100110.72;5035564;28;20498;-75
2022/08/13 07:36:27;;;;;;;17.30;10.38;;;;;;;20.98;63.83;100101.50;5016309;28;20120;-75
2022/08/13 07:38:56;;;;;;;23.27;10.50;;;;;;;20.91;63.72;100078.59;5022706;28;20073;-75
2022/08/13 07:41:26;;;;;;;21.25;10.48;;;;;;;21.02;63.59;100091.06;5033864;28;20107;-75
2022/08/13 07:43:59;;;;;;;23.30;9.63;;;;;;;21.10;63.73;100091.28;5023254;28;20045;-74
2022/08/13 07:46:34;;;;;;;21.15;10.50;;;;;;;20.79;63.40;100027.56;5034054;28;20058;-74
2022/08/13 07:49:01;;;;;;;21.90;10.75;;;;;;;21.33;63.59;100100.81;5034179;28;20494;-75
2022/08/13 07:51:31;;;;;;;;;;;;;;;21.36;63.46;100102.16;5014846;28;20136;-76
2022/08/13 07:54:05;;;;;;;29.85;10.48;;;;;;;21.55;63.10;100101.44;5014488;28;19956;-75
2022/08/13 07:56:35;;;;;;;15.10;9.30;;;;;;;21.49;62.89;100098.03;5014443;28;20050;-74
2022/08/13 07:59:18;;;;;;;20.67;11.07;;;;;;;21.60;63.48;100104.00;5016447;28;20050;-75
2022/08/13 08:02:10;;;;;;;22.10;10.18;;;;;;;21.70;63.02;100090.06;5034043;28;20057;-75
2022/08/13 08:04:49;;;;;;;26.90;13.05;;;;;;;21.81;62.93;100090.34;5034144;28;20418;-76
2022/08/13 08:07:22;;;;;;;30.35;11.90;;;;;;;21.83;62.74;100082.28;5034076;28;20151;-76
2022/08/13 08:09:52;;;;;;;15.18;10.15;;;;;;;21.71;62.68;100066.16;5034038;28;20107;-75
2022/08/13 08:12:38;;;;;;;18.23;10.38;;;;;;;21.79;62.42;100091.91;5033871;28;20049;-75
2022/08/13 08:15:23;;;;;;;28.45;11.00;;;;;;;21.92;62.30;100090.63;5033458;28;20060;-74
2022/08/13 08:18:11;;;;;;;20.20;11.52;;;;;;;22.08;62.02;100093.41;5052029;28;20056;-75
2022/08/13 08:21:04;;;;;;;18.13;10.00;;;;;;;22.15;62.13;100085.09;5053514;28;20084;-75
2022/08/13 08:24:04;;;;;;;18.88;9.95;;;;;;;22.12;61.95;100078.13;5053457;28;20131;-74
2022/08/13 08:26:47;;;;;;;22.85;9.15;;;;;;;22.27;61.80;100093.50;5053324;28;20398;-74
2022/08/13 08:29:16;;;;;;;24.02;10.38;;;;;;;22.14;61.66;100066.34;5053402;28;20080;-76
2022/08/13 08:31:48;;;;;;;22.98;9.98;;;;;;;22.18;61.97;100059.56;5053443;28;20110;-76
2022/08/13 08:34:27;;;;;;;19.55;9.32;;;;;;;21.99;61.89;100026.22;5052506;28;20061;-76
2022/08/13 08:36:55;;;;;;;24.10;11.43;;;;;;;22.27;61.25;100076.44;5053079;28;20049;-75
2022/08/13 08:45:00;;;;;;;19.27;9.40;;;;;;;22.42;61.43;100095.47;5033189;28;20124;-75
2022/08/13 08:47:33;;;;;;;19.65;10.50;;;;;;;22.40;61.08;100080.00;5048426;28;20115;-75
2022/08/13 08:50:25;;;;;;;24.15;10.07;;;;;;;21.87;61.22;100014.97;5036327;28;20434;-75
2022/08/13 08:56:04;;;;;;;20.38;10.65;;;;;;;22.47;61.22;100094.38;5042236;28;20462;-75
2022/08/13 08:58:35;;;;;;;21.65;11.27;;;;;;;22.22;60.99;100062.50;5019183;28;20100;-75
2022/08/13 09:01:05;;;;;;;24.33;11.95;;;;;;;22.56;60.56;100119.75;5013299;28;20495;-75
2022/08/13 09:03:38;;;;;;;22.08;11.57;;;;;;;22.46;60.90;100101.25;5032955;28;20056;-75
2022/08/13 09:06:31;;;;;;;29.52;13.95;;;;;;;22.51;60.58;100108.69;5032912;28;20061;-75
2022/08/13 09:09:20;;;;;;;21.15;11.50;;;;;;;22.36;60.23;100079.06;5033208;28;20056;-76
2022/08/13 09:11:50;;;;;;;26.40;11.00;;;;;;;21.96;60.73;100035.50;5032799;28;20053;-76
2022/08/13 09:14:26;;;;;;;21.25;10.98;;;;;;;22.49;60.58;100128.97;5032903;28;20111;-76
2022/08/13 09:16:55;;;;;;;21.35;10.90;;;;;;;22.40;60.39;100137.72;5031473;28;20140;-74
2022/08/13 09:19:23;;;;;;;22.98;11.80;;;;;;;22.09;60.38;100086.56;5032619;28;20088;-75
2022/08/13 09:22:14;;;;;;;24.17;12.40;;;;;;;22.45;60.78;100142.28;5038522;28;20052;-75
2022/08/13 09:24:46;;;;;;;20.83;11.15;;;;;;;22.47;60.42;100146.41;5020736;28;20072;-75
2022/08/13 09:27:18;;;;;;;18.55;9.80;;;;;;;21.99;60.71;100070.91;5032498;28;20057;-75
2022/08/13 09:29:48;;;;;;;23.60;12.27;;;;;;;22.37;60.34;100137.63;5032535;28;20494;-74
2022/08/13 09:32:35;;;;;;;21.83;12.00;;;;;;;22.29;60.42;100136.66;5032557;28;20053;-75
2022/08/13 09:35:06;;;;;;;19.17;9.95;;;;;;;22.40;60.27;100156.81;5033052;28;20080;-76
2022/08/13 09:37:33;;;;;;;26.20;12.60;;;;;;;22.27;60.51;100156.09;5047844;28;20077;-74
2022/08/13 09:40:25;;;;;;;20.65;10.23;;;;;;;22.24;60.61;100160.50;5032720;28;20050;-73
2022/08/13 09:43:21;;;;;;;19.65;10.55;;;;;;;21.81;60.31;100107.38;5033209;28;20061;-74
2022/08/13 09:46:10;;;;;;;15.55;7.20;;;;;;;22.17;60.56;100179.41;5032367;28;20528;-74
2022/08/13 09:48:43;;;;;;;11.38;7.30;;;;;;;21.77;60.44;100134.91;5032363;28;20055;-74
2022/08/13 09:51:13;;;;;;;11.95;6.47;;;;;;;21.76;60.99;100144.63;5032267;28;20510;-74
2022/08/13 09:54:02;;;;;;;15.13;6.28;;;;;;;21.90;61.21;100170.56;5032409;28;20132;-74
2022/08/13 09:56:37;;;;;;;11.32;6.70;;;;;;;21.64;60.55;100107.75;5030948;28;20058;-75
2022/08/13 09:59:07;;;;;;;11.77;6.18;;;;;;;22.05;60.88;100166.09;5032929;28;20041;-73
2022/08/13 10:01:41;;;;;;;12.02;5.45;;;;;;;22.15;60.71;100190.31;5032245;28;20053;-75
2022/08/13 10:04:26;;;;;;;14.52;7.47;;;;;;;22.08;60.25;100173.03;5012601;28;20045;-74
2022/08/13 10:06:58;;;;;;;12.68;6.30;;;;;;;22.09;60.43;100184.06;5021811;28;20049;-76
2022/08/13 10:09:27;;;;;;;9.88;6.13;;;;;;;22.05;60.30;100177.47;5031987;28;20062;-75
2022/08/13 10:12:22;;;;;;;10.38;5.55;;;;;;;22.13;60.61;100169.94;5031918;28;20050;-75
2022/08/13 10:15:13;;;;;;;11.43;5.03;;;;;;;21.92;60.24;100119.06;5033250;28;20052;-75
2022/08/13 10:17:55;;;;;;;12.55;5.95;;;;;;;22.30;60.04;100172.44;5030451;28;20052;-75
2022/08/13 10:20:30;;;;;;;10.45;5.78;;;;;;;22.35;60.13;100186.34;5031998;28;20053;-75
2022/08/13 10:22:58;;;;;;;10.18;6.13;;;;;;;22.29;60.05;100173.63;5032227;28;20057;-75
2022/08/13 10:25:27;;;;;;;9.70;5.25;;;;;;;22.31;59.76;100173.25;5032090;28;20099;-76
2022/08/13 10:28:25;;;;;;;14.75;8.38;;;;;;;22.42;59.86;100183.66;5032279;28;20053;-75
2022/08/13 10:30:58;;;;;;;9.00;5.57;;;;;;;22.48;59.55;100190.72;5030979;28;20046;-75
2022/08/13 10:33:45;;;;;;;10.20;6.35;;;;;;;22.43;59.59;100193.88;5032511;28;20506;-76
2022/08/13 10:36:14;;;;;;;10.55;6.45;;;;;;;22.13;59.66;100150.84;5050430;28;20081;-76
2022/08/13 10:38:41;;;;;;;7.27;4.63;;;;;;;22.12;59.67;100154.03;5035855;28;20045;-75
2022/08/13 10:41:19;;;;;;;9.45;5.18;;;;;;;22.42;59.61;100189.38;5035508;28;20046;-76
2022/08/13 10:43:48;;;;;;;7.65;4.72;;;;;;;22.40;59.50;100194.63;5035822;28;20072;-76
2022/08/13 10:46:24;;;;;;;10.27;5.35;;;;;;;22.41;59.81;100184.88;5035876;28;20152;-75
2022/08/13 10:48:55;;;;;;;7.40;4.28;;;;;;;22.11;59.50;100129.66;5036489;28;20505;-75
2022/08/13 10:51:29;;;;;;;8.85;5.40;;;;;;;22.42;59.45;100180.81;5016850;28;20057;-75
2022/08/13 10:54:02;;;;;;;11.25;7.65;;;;;;;22.45;59.86;100200.00;5017285;28;20484;-75
2022/08/13 10:56:32;;;;;;;14.48;9.07;;;;;;;22.41;59.65;100190.56;5016566;28;20045;-75
2022/08/13 10:59:01;;;;;;;8.45;6.57;;;;;;;22.45;59.75;100194.31;5015976;28;20050;-76
2022/08/13 11:01:30;;;;;;;8.02;4.72;;;;;;;22.39;59.79;100181.59;5018797;28;20083;-75
2022/08/13 11:04:04;;;;;;;9.93;5.60;;;;;;;22.34;59.46;100179.03;5035135;28;20087;-76
2022/08/13 11:06:36;;;;;;;10.02;4.18;;;;;;;22.42;59.58;100205.63;5035900;28;20505;-75
2022/08/13 11:09:07;;;;;;;9.80;4.35;;;;;;;22.20;59.58;100155.91;5034775;28;20073;-74
2022/08/13 11:11:57;;;;;;;10.52;5.95;;;;;;;22.54;59.45;100210.38;5035238;28;20100;-75
2022/08/13 11:14:29;;;;;;;10.40;7.18;;;;;;;22.23;59.40;100172.25;5035074;28;20053;-75
2022/08/13 11:17:04;;;;;;;8.27;4.00;;;;;;;22.32;59.86;100174.88;5035303;28;20594;-75
2022/08/13 11:19:51;;;;;;;12.52;4.72;;;;;;;22.56;59.76;100223.03;5035067;28;20088;-75
2022/08/13 11:22:28;;;;;;;5.75;4.00;;;;;;;22.63;59.32;100213.84;5034891;28;20501;-75
2022/08/13 11:25:00;;;;;;;8.05;4.32;;;;;;;22.67;58.93;100207.06;5035832;28;20050;-75
2022/08/13 11:27:48;;;;;;;5.70;3.97;;;;;;;22.28;58.80;100125.63;5034641;28;20148;-74
2022/08/13 11:30:19;;;;;;;7.32;4.13;;;;;;;22.20;59.24;100119.78;5034533;28;20132;-75
2022/08/13 11:33:03;;;;;;;6.60;4.28;;;;;;;22.82;59.18;100211.03;5034816;28;20054;-75
2022/08/13 11:35:35;;;;;;;12.68;5.05;;;;;;;22.81;59.19;100195.16;5034741;28;20641;-75
2022/08/13 11:38:11;;;;;;;7.53;4.32;;;;;;;22.88;59.24;100203.88;5034612;28;20049;-75
2022/08/13 11:40:55;;;;;;;12.68;5.55;;;;;;;22.41;58.87;100118.63;5035128;28;20045;-76
2022/08/13 11:43:24;;;;;;;7.53;5.35;;;;;;;22.84;58.56;100188.72;5033052;28;20140;-75
2022/08/13 11:46:11;;;;;;;9.25;5.50;;;;;;;23.01;58.76;100209.44;5034075;28;20049;-75
2022/08/13 11:48:40;;;;;;;10.73;5.38;;;;;;;23.01;58.40;100200.88;5034056;28;20045;-75
2022/08/13 11:51:07;;;;;;;7.10;4.30;;;;;;;22.57;58.24;100132.81;5034397;28;20111;-74
2022/08/13 11:53:34;;;;;;;8.63;4.40;;;;;;;22.95;58.58;100163.38;5033255;28;20081;-75
2022/08/13 11:56:22;;;;;;;8.43;4.70;;;;;;;23.22;58.15;100177.75;5034543;28;20500;-75
2022/08/13 11:58:54;;;;;;;6.72;4.68;;;;;;;23.49;57.69;100192.97;5034831;28;20057;-75
2022/08/13 12:01:25;;;;;;;12.52;7.82;;;;;;;23.53;57.47;100208.09;5035596;28;20049;-76
2022/08/13 12:04:10;;;;;;;12.35;6.25;;;;;;;23.35;57.92;100154.44;5035507;28;20536;-76
2022/08/13 12:06:45;;;;;;;6.57;3.92;;;;;;;23.76;56.87;100186.19;5038441;28;20049;-76
2022/08/13 12:09:18;;;;;;;5.90;4.35;;;;;;;24.02;56.95;100184.59;5034486;28;20041;-75
2022/08/13 12:12:05;;;;;;;7.32;3.40;;;;;;;24.27;56.38;100197.28;5013997;28;20062;-76
2022/08/13 12:14:38;;;;;;;6.40;3.72;;;;;;;24.31;56.49;100183.88;5021153;28;20050;-75
2022/08/13 12:17:05;;;;;;;7.17;3.47;;;;;;;24.18;55.86;100153.91;5033633;28;20045;-75
2022/08/13 12:19:32;;;;;;;6.80;3.60;;;;;;;24.46;55.44;100182.09;5033603;28;20064;-75